Time;durP1;ratioP1;P1;durP2;ratioP2;P2;SDS_P1;SDS_P2;PMS_P1;PMS_P2;Temp;Humidity;BMP_temperature;BMP_pressure;BME280_temperature;BME280_humidity;BME280_pressure;Samples;Min_cycle;Max_cycle;Signal;HPM_P1;HPM_P2
2022/10/16 00:00:40;;;;;;;4.67;2.90;;;12.10;99.90;;;;;;5028049;28;20484;-51
2022/10/16 00:03:08;;;;;;;4.37;2.50;;;12.30;99.90;;;;;;5027776;28;20535;-50
2022/10/16 00:05:39;;;;;;;3.87;2.60;;;12.40;99.90;;;;;;5028248;28;20453;-50
2022/10/16 00:08:07;;;;;;;3.73;2.43;;;12.50;99.90;;;;;;5027977;28;21089;-52
2022/10/16 00:10:34;;;;;;;2.80;2.30;;;12.40;99.90;;;;;;5027850;28;21050;-49
2022/10/16 00:13:02;;;;;;;3.90;2.30;;;12.40;99.90;;;;;;5027959;28;20564;-49
2022/10/16 00:15:29;;;;;;;3.47;2.20;;;12.50;99.90;;;;;;5028351;28;20816;-50
2022/10/16 00:17:55;;;;;;;3.13;2.80;;;12.50;99.90;;;;;;5028067;28;20449;-50
2022/10/16 00:20:22;;;;;;;5.50;2.30;;;12.30;99.90;;;;;;5029520;28;20642;-50
2022/10/16 00:22:49;;;;;;;3.73;2.10;;;12.40;99.90;;;;;;5031100;28;20942;-50
2022/10/16 00:25:16;;;;;;;2.50;2.30;;;12.30;99.90;;;;;;5031467;28;20448;-50
2022/10/16 00:27:43;;;;;;;5.67;2.27;;;12.00;99.90;;;;;;5031495;28;20572;-50
2022/10/16 00:30:11;;;;;;;2.40;1.90;;;12.10;99.90;;;;;;5031181;28;20500;-52
2022/10/16 00:32:38;;;;;;;7.43;2.57;;;12.30;99.90;;;;;;5031317;28;20526;-50
2022/10/16 00:35:06;;;;;;;2.63;2.30;;;12.40;99.90;;;;;;5031387;28;20535;-50
2022/10/16 00:37:33;;;;;;;2.43;2.13;;;12.30;99.90;;;;;;5031405;28;20479;-50
2022/10/16 00:40:00;;;;;;;3.00;2.67;;;12.20;99.90;;;;;;5031307;28;20471;-50
2022/10/16 00:42:27;;;;;;;2.67;1.97;;;12.30;99.90;;;;;;5031047;28;20539;-50
2022/10/16 00:44:56;;;;;;;3.43;2.43;;;12.30;99.90;;;;;;5031260;28;20449;-49
2022/10/16 00:47:28;;;;;;;3.50;2.83;;;12.30;99.90;;;;;;5031099;28;20531;-50
2022/10/16 00:50:00;;;;;;;5.00;1.93;;;12.40;99.90;;;;;;5030982;28;20552;-50
2022/10/16 00:52:27;;;;;;;5.60;2.57;;;12.20;99.90;;;;;;5031335;28;20499;-51
2022/10/16 00:54:56;;;;;;;2.57;1.70;;;12.40;99.90;;;;;;5030748;28;20536;-49
2022/10/16 00:57:23;;;;;;;3.07;1.60;;;12.40;99.90;;;;;;5030956;28;20472;-49
2022/10/16 00:59:50;;;;;;;15.43;3.10;;;12.30;99.90;;;;;;5031106;28;20467;-50
2022/10/16 01:02:18;;;;;;;2.73;1.80;;;12.30;99.90;;;;;;5031052;28;20467;-49
2022/10/16 01:04:48;;;;;;;5.10;2.13;;;12.50;99.90;;;;;;5030747;28;20450;-49
2022/10/16 01:07:28;;;;;;;3.60;2.40;;;12.20;99.90;;;;;;5030819;28;20450;-49
2022/10/16 01:10:04;;;;;;;3.43;2.17;;;11.50;99.90;;;;;;5031069;28;20491;-51
2022/10/16 01:12:39;;;;;;;3.13;2.10;;;11.50;99.90;;;;;;5031349;28;20525;-51
2022/10/16 01:15:14;;;;;;;4.47;2.50;;;11.40;99.90;;;;;;5030586;28;20527;-50
2022/10/16 01:17:45;;;;;;;2.60;2.00;;;11.90;99.90;;;;;;5030526;28;20451;-49
2022/10/16 01:20:27;;;;;;;2.80;2.13;;;12.10;99.90;;;;;;5030065;28;21137;-49
2022/10/16 01:23:05;;;;;;;2.57;2.13;;;12.10;99.90;;;;;;5030585;28;20445;-51
2022/10/16 01:25:53;;;;;;;3.93;1.83;;;12.30;99.90;;;;;;5030490;28;20475;-49
2022/10/16 01:28:25;;;;;;;2.90;2.40;;;12.40;99.90;;;;;;5030325;28;20565;-49
2022/10/16 01:30:56;;;;;;;3.13;1.97;;;12.50;99.90;;;;;;5029484;28;21007;-50
2022/10/16 01:33:28;;;;;;;2.00;1.63;;;12.30;99.90;;;;;;5029987;28;20537;-51
2022/10/16 01:36:00;;;;;;;2.83;2.23;;;12.40;99.90;;;;;;5030334;28;20534;-49
2022/10/16 01:38:32;;;;;;;3.13;2.10;;;12.20;99.90;;;;;;5030216;28;20444;-50
2022/10/16 01:41:02;;;;;;;2.93;1.90;;;12.30;99.90;;;;;;5030732;28;20813;-49
2022/10/16 01:43:37;;;;;;;2.50;2.00;;;12.40;99.90;;;;;;5030134;28;20532;-50
2022/10/16 01:46:04;;;;;;;2.83;2.27;;;12.40;99.90;;;;;;5030123;28;21016;-49
2022/10/16 01:48:32;;;;;;;3.70;2.87;;;12.20;99.90;;;;;;5029954;28;21070;-49
2022/10/16 01:51:04;;;;;;;2.40;2.20;;;12.30;99.90;;;;;;5029839;28;20552;-50
2022/10/16 01:53:32;;;;;;;3.30;2.30;;;12.30;99.90;;;;;;5030022;28;20433;-51
2022/10/16 01:56:00;;;;;;;3.20;2.20;;;12.00;99.90;;;;;;5030161;28;20440;-49
2022/10/16 01:58:34;;;;;;;2.53;2.10;;;11.60;99.90;;;;;;5030118;28;20530;-49
2022/10/16 02:01:03;;;;;;;2.57;2.37;;;11.60;99.90;;;;;;5031484;28;20994;-49
2022/10/16 02:03:30;;;;;;;4.53;2.30;;;11.80;99.90;;;;;;5030009;28;20539;-51
2022/10/16 02:05:59;;;;;;;4.70;2.50;;;11.90;99.90;;;;;;5029615;28;20960;-49
2022/10/16 02:08:29;;;;;;;4.33;2.17;;;12.10;99.90;;;;;;5029892;28;20571;-50
2022/10/16 02:10:56;;;;;;;4.50;1.93;;;12.30;99.90;;;;;;5029719;28;20547;-48
2022/10/16 02:13:28;;;;;;;3.30;2.80;;;12.20;99.90;;;;;;5029451;28;20448;-49
2022/10/16 02:15:55;;;;;;;2.90;2.30;;;11.90;99.90;;;;;;5029627;28;20450;-49
2022/10/16 02:18:26;;;;;;;2.23;2.00;;;12.20;99.90;;;;;;5029504;28;20535;-50
2022/10/16 02:20:58;;;;;;;2.93;2.37;;;12.30;99.90;;;;;;5029048;28;21074;-49
2022/10/16 02:23:35;;;;;;;2.63;1.90;;;12.40;99.90;;;;;;5029836;28;20826;-49
2022/10/16 02:26:04;;;;;;;5.40;2.30;;;12.20;99.90;;;;;;5029846;28;20447;-49
2022/10/16 02:28:40;;;;;;;6.20;2.13;;;12.10;99.90;;;;;;5029347;28;20868;-48
2022/10/16 02:31:12;;;;;;;3.50;2.00;;;12.20;99.90;;;;;;5029507;28;20470;-49
2022/10/16 02:33:43;;;;;;;3.10;2.33;;;12.40;99.90;;;;;;5029422;28;20459;-50
2022/10/16 02:36:11;;;;;;;2.70;1.83;;;12.40;99.90;;;;;;5029451;28;20531;-50
2022/10/16 02:38:39;;;;;;;3.10;2.17;;;12.40;99.90;;;;;;5029040;28;20552;-51
2022/10/16 02:41:07;;;;;;;3.27;2.50;;;12.50;99.90;;;;;;5029170;28;20476;-50
2022/10/16 02:43:34;;;;;;;4.10;1.90;;;11.70;99.90;;;;;;5029206;28;20450;-49
2022/10/16 02:46:01;;;;;;;3.10;1.93;;;11.20;99.90;;;;;;5029183;28;20820;-48
2022/10/16 02:48:28;;;;;;;4.00;2.23;;;11.20;99.90;;;;;;5029725;28;20563;-49
2022/10/16 02:50:57;;;;;;;2.97;2.43;;;11.40;99.90;;;;;;5028946;28;20468;-48
2022/10/16 02:53:23;;;;;;;3.47;1.93;;;11.60;99.90;;;;;;5028677;28;20448;-48
2022/10/16 02:55:50;;;;;;;4.53;2.30;;;11.80;99.90;;;;;;5029179;28;20934;-48
2022/10/16 02:58:17;;;;;;;3.43;2.50;;;12.00;99.90;;;;;;5028795;28;20539;-50
2022/10/16 03:00:44;;;;;;;3.33;2.97;;;11.60;99.90;;;;;;5028942;28;20503;-49
2022/10/16 03:03:11;;;;;;;2.93;2.43;;;11.60;99.90;;;;;;5028665;28;20970;-49
2022/10/16 03:05:38;;;;;;;3.37;2.07;;;11.10;99.90;;;;;;5028919;28;20490;-50
2022/10/16 03:08:06;;;;;;;3.87;2.10;;;11.10;99.90;;;;;;5029129;28;20528;-49
2022/10/16 03:10:33;;;;;;;3.70;2.70;;;11.30;99.90;;;;;;5029022;28;20463;-49
2022/10/16 03:13:00;;;;;;;2.63;2.00;;;11.60;99.90;;;;;;5028787;28;20840;-49
2022/10/16 03:15:28;;;;;;;3.73;2.27;;;11.80;99.90;;;;;;5028709;28;20440;-49
2022/10/16 03:17:55;;;;;;;3.97;2.60;;;12.00;99.90;;;;;;5028638;28;20815;-49
2022/10/16 03:20:21;;;;;;;2.50;2.07;;;11.90;99.90;;;;;;5028627;28;20481;-49
2022/10/16 03:22:48;;;;;;;2.30;1.90;;;12.00;99.90;;;;;;5028837;28;20469;-49
2022/10/16 03:25:17;;;;;;;3.67;2.03;;;12.20;99.90;;;;;;5028713;28;20539;-48
2022/10/16 03:27:43;;;;;;;2.50;2.10;;;12.10;99.90;;;;;;5028797;28;20543;-49
2022/10/16 03:30:11;;;;;;;2.60;2.13;;;11.50;99.90;;;;;;5028232;28;20559;-49
2022/10/16 03:32:38;;;;;;;6.47;1.90;;;11.30;99.90;;;;;;5028296;28;20530;-48
2022/10/16 03:35:06;;;;;;;4.30;2.30;;;11.40;99.90;;;;;;5028397;28;20526;-49
2022/10/16 03:37:32;;;;;;;2.87;2.03;;;11.50;99.90;;;;;;5028759;28;20528;-49
2022/10/16 03:40:00;;;;;;;4.43;3.10;;;11.70;99.90;;;;;;5028095;28;20547;-50
2022/10/16 03:42:28;;;;;;;4.67;2.47;;;11.80;99.90;;;;;;5028078;28;20444;-49
2022/10/16 03:44:55;;;;;;;3.07;2.23;;;11.60;99.90;;;;;;5028300;28;20874;-49
2022/10/16 03:47:23;;;;;;;3.33;2.30;;;11.70;99.90;;;;;;5028240;28;20528;-49
2022/10/16 03:49:50;;;;;;;3.47;2.00;;;11.90;99.90;;;;;;5028199;28;20900;-49
2022/10/16 03:52:17;;;;;;;2.67;2.00;;;12.00;99.90;;;;;;5028104;28;20539;-50
2022/10/16 03:54:44;;;;;;;2.40;1.80;;;12.00;99.90;;;;;;5031149;28;20555;-49
2022/10/16 03:57:11;;;;;;;2.20;2.00;;;12.00;99.90;;;;;;5035012;28;20534;-50
2022/10/16 03:59:39;;;;;;;3.10;2.30;;;11.80;99.90;;;;;;5034748;28;20440;-49
2022/10/16 04:02:06;;;;;;;2.63;1.93;;;11.70;99.90;;;;;;5035003;28;20533;-49
2022/10/16 04:04:33;;;;;;;2.40;2.03;;;11.60;99.90;;;;;;5034487;28;20533;-49
2022/10/16 04:07:00;;;;;;;4.60;2.50;;;11.60;99.90;;;;;;5034680;28;20441;-49
2022/10/16 04:09:27;;;;;;;2.00;1.80;;;11.30;99.90;;;;;;5034654;28;20475;-49
2022/10/16 04:11:53;;;;;;;2.63;1.63;;;11.40;99.90;;;;;;5035017;28;21001;-49
2022/10/16 04:14:20;;;;;;;3.30;1.80;;;11.50;99.90;;;;;;5034553;28;20609;-50
2022/10/16 04:16:49;;;;;;;1.97;1.70;;;11.50;99.90;;;;;;5034666;28;20534;-49
2022/10/16 04:19:16;;;;;;;2.37;2.17;;;11.60;99.90;;;;;;5034578;28;20439;-49
2022/10/16 04:21:42;;;;;;;4.13;1.73;;;11.70;99.90;;;;;;5034240;28;20466;-51
2022/10/16 04:24:11;;;;;;;2.43;1.60;;;11.80;99.90;;;;;;5034205;28;20533;-50
2022/10/16 04:26:38;;;;;;;2.50;1.53;;;11.80;99.90;;;;;;5034606;28;20447;-49
2022/10/16 04:29:05;;;;;;;3.30;1.70;;;11.60;99.90;;;;;;5034546;28;20656;-50
2022/10/16 04:31:32;;;;;;;3.80;1.57;;;11.70;99.90;;;;;;5034383;28;20545;-50
2022/10/16 04:34:01;;;;;;;2.90;1.60;;;11.80;99.90;;;;;;5034404;28;20535;-49
2022/10/16 04:36:27;;;;;;;3.00;1.80;;;11.50;99.90;;;;;;5034216;28;21045;-50
2022/10/16 04:38:55;;;;;;;4.37;2.20;;;11.10;99.90;;;;;;5034705;28;21009;-48
2022/10/16 04:41:21;;;;;;;5.37;2.20;;;11.00;99.90;;;;;;5034203;28;20560;-51
2022/10/16 04:43:48;;;;;;;3.23;2.07;;;10.90;99.90;;;;;;5034399;28;20529;-49
2022/10/16 04:46:15;;;;;;;3.43;2.10;;;11.00;99.90;;;;;;5034566;28;20518;-49
2022/10/16 04:48:42;;;;;;;3.83;2.30;;;11.30;99.90;;;;;;5034220;28;20891;-51
2022/10/16 04:51:10;;;;;;;2.60;1.83;;;11.50;99.90;;;;;;5034100;28;20554;-49
2022/10/16 04:53:37;;;;;;;3.30;2.13;;;11.70;99.90;;;;;;5034247;28;20462;-50
2022/10/16 04:56:04;;;;;;;3.40;1.83;;;11.60;99.90;;;;;;5034213;28;20897;-50
2022/10/16 04:58:31;;;;;;;2.93;2.13;;;11.60;99.90;;;;;;5034540;28;20533;-50
2022/10/16 05:00:58;;;;;;;6.47;2.40;;;11.70;99.90;;;;;;5033767;28;20561;-50
2022/10/16 05:03:24;;;;;;;2.50;1.97;;;11.60;99.90;;;;;;5033778;28;20443;-48
2022/10/16 05:05:51;;;;;;;2.10;1.67;;;11.70;99.90;;;;;;5032673;28;20444;-49
2022/10/16 05:08:19;;;;;;;2.27;1.80;;;11.80;99.90;;;;;;5030781;28;20524;-49
2022/10/16 05:10:46;;;;;;;3.73;1.63;;;11.70;99.90;;;;;;5030871;28;20839;-49
2022/10/16 05:13:13;;;;;;;2.83;2.00;;;11.60;99.90;;;;;;5030514;28;21229;-49
2022/10/16 05:15:40;;;;;;;5.03;2.00;;;11.50;99.90;;;;;;5030589;28;20534;-49
2022/10/16 05:18:07;;;;;;;2.70;2.10;;;11.30;99.90;;;;;;5030572;28;20526;-50
2022/10/16 05:20:35;;;;;;;2.43;1.73;;;11.50;99.90;;;;;;5030180;28;20551;-51
2022/10/16 05:23:02;;;;;;;3.10;1.70;;;11.60;99.90;;;;;;5030528;28;20530;-50
2022/10/16 05:25:30;;;;;;;3.93;2.00;;;11.70;99.90;;;;;;5030733;28;20448;-50
2022/10/16 05:27:57;;;;;;;3.47;1.83;;;11.50;99.90;;;;;;5030507;28;20525;-49
2022/10/16 05:30:24;;;;;;;3.70;1.80;;;11.10;99.90;;;;;;5029997;28;21101;-49
2022/10/16 05:32:51;;;;;;;3.10;1.83;;;10.80;99.90;;;;;;5030421;28;20538;-49
2022/10/16 05:35:19;;;;;;;3.40;1.97;;;10.70;99.90;;;;;;5030271;28;20526;-50
2022/10/16 05:37:46;;;;;;;3.53;2.20;;;10.60;99.90;;;;;;5030507;28;20445;-48
2022/10/16 05:40:14;;;;;;;4.87;2.27;;;10.70;99.90;;;;;;5030172;28;20558;-50
2022/10/16 05:42:42;;;;;;;4.13;2.25;;;10.90;99.90;;;;;;5029984;28;20532;-50
2022/10/16 05:45:11;;;;;;;3.80;2.50;;;10.90;99.90;;;;;;5029962;28;20200;-50
2022/10/16 05:47:38;;;;;;;2.50;2.00;;;11.00;99.90;;;;;;5030343;28;20940;-49
2022/10/16 05:50:06;;;;;;;8.63;6.20;;;11.30;99.90;;;;;;5029876;28;20482;-50
2022/10/16 05:52:33;;;;;;;3.97;2.80;;;11.20;99.90;;;;;;5030494;28;20453;-50
2022/10/16 05:55:00;;;;;;;3.70;2.50;;;11.30;99.90;;;;;;5029976;28;20854;-50
2022/10/16 05:57:26;;;;;;;2.90;2.27;;;11.30;99.90;;;;;;5029938;28;20470;-51
2022/10/16 05:59:55;;;;;;;3.30;2.57;;;11.00;99.90;;;;;;5029942;28;20565;-50
2022/10/16 06:02:21;;;;;;;3.23;1.70;;;11.20;99.90;;;;;;5030344;28;20533;-51
2022/10/16 06:04:48;;;;;;;2.27;1.90;;;11.30;99.90;;;;;;5029726;28;20527;-50
2022/10/16 06:07:15;;;;;;;2.83;2.17;;;11.20;99.90;;;;;;5029803;28;20440;-50
2022/10/16 06:09:42;;;;;;;2.53;1.87;;;10.70;99.90;;;;;;5029780;28;20523;-50
2022/10/16 06:12:09;;;;;;;3.80;2.07;;;10.10;99.90;;;;;;5029927;28;20530;-50
2022/10/16 06:14:36;;;;;;;2.57;2.30;;;10.40;99.90;;;;;;5029939;28;20439;-51
2022/10/16 06:17:04;;;;;;;3.23;2.07;;;10.80;99.90;;;;;;5029300;28;20530;-49
2022/10/16 06:19:31;;;;;;;2.97;2.10;;;11.00;99.90;;;;;;5029525;28;20439;-50
2022/10/16 06:21:58;;;;;;;2.50;1.87;;;11.10;99.90;;;;;;5029664;28;20447;-50
2022/10/16 06:24:25;;;;;;;4.30;2.47;;;11.20;99.90;;;;;;5029551;28;20451;-51
2022/10/16 06:26:52;;;;;;;3.30;1.70;;;11.30;99.90;;;;;;5029750;28;20448;-50
2022/10/16 06:29:19;;;;;;;7.73;2.20;;;11.20;99.90;;;;;;5029404;28;20447;-50
2022/10/16 06:31:46;;;;;;;2.20;1.83;;;11.40;99.90;;;;;;5029388;28;20551;-49
2022/10/16 06:34:14;;;;;;;3.87;3.30;;;11.50;99.90;;;;;;5029387;28;20991;-50
2022/10/16 06:36:43;;;;;;;2.77;2.20;;;10.50;99.90;;;;;;5030365;28;21032;-49
2022/10/16 06:39:10;;;;;;;3.00;2.40;;;10.40;99.90;;;;;;5030400;28;20451;-48
2022/10/16 06:41:36;;;;;;;4.17;2.93;;;10.90;99.90;;;;;;5029455;28;20539;-48
2022/10/16 06:44:07;;;;;;;4.60;4.13;;;10.50;99.90;;;;;;5029677;28;20539;-51
2022/10/16 06:46:34;;;;;;;5.77;4.30;;;10.10;99.90;;;;;;5029106;28;20768;-50
2022/10/16 06:49:01;;;;;;;18.47;7.27;;;10.00;99.90;;;;;;5029317;28;20989;-48
2022/10/16 06:51:31;;;;;;;4.80;3.77;;;10.00;99.90;;;;;;5028950;28;20494;-49
2022/10/16 06:53:57;;;;;;;5.20;3.80;;;10.00;99.90;;;;;;5029082;28;20447;-49
2022/10/16 06:56:26;;;;;;;6.27;4.13;;;10.10;99.90;;;;;;5029335;28;20518;-48
2022/10/16 06:58:53;;;;;;;4.33;3.50;;;10.30;99.90;;;;;;5028913;28;20453;-49
2022/10/16 07:01:24;;;;;;;4.93;2.90;;;10.60;99.90;;;;;;5028851;28;20561;-48
2022/10/16 07:03:51;;;;;;;5.90;4.93;;;10.90;99.90;;;;;;5028524;28;20822;-48
2022/10/16 07:06:20;;;;;;;2.93;2.23;;;11.10;99.90;;;;;;5029050;28;20442;-47
2022/10/16 07:08:49;;;;;;;2.87;2.13;;;11.40;99.90;;;;;;5029263;28;20625;-48
2022/10/16 07:11:17;;;;;;;3.07;1.90;;;11.60;99.90;;;;;;5028820;28;20574;-48
2022/10/16 07:13:45;;;;;;;5.10;4.60;;;11.70;99.90;;;;;;5028697;28;20447;-48
2022/10/16 07:16:14;;;;;;;5.53;4.97;;;11.70;99.90;;;;;;5028668;28;20460;-48
2022/10/16 07:18:43;;;;;;;6.00;4.17;;;11.20;99.90;;;;;;5028934;28;20509;-48
2022/10/16 07:21:12;;;;;;;6.20;5.60;;;11.00;99.90;;;;;;5028844;28;20472;-48
2022/10/16 07:23:39;;;;;;;5.30;4.80;;;11.20;99.90;;;;;;5028419;28;20534;-48
2022/10/16 07:26:10;;;;;;;4.47;4.07;;;11.30;99.90;;;;;;5028282;28;20567;-51
2022/10/16 07:28:37;;;;;;;3.07;2.77;;;11.00;99.90;;;;;;5028125;28;20534;-49
2022/10/16 07:31:06;;;;;;;3.10;2.60;;;11.00;99.90;;;;;;5028142;28;21021;-48
2022/10/16 07:33:34;;;;;;;3.67;3.27;;;11.10;99.90;;;;;;5028422;28;20442;-49
2022/10/16 07:36:00;;;;;;;4.30;3.00;;;11.20;99.90;;;;;;5028413;28;20538;-50
2022/10/16 07:38:27;;;;;;;4.87;4.00;;;11.50;99.90;;;;;;5028279;28;20447;-48
2022/10/16 07:40:59;;;;;;;4.43;3.60;;;11.50;99.90;;;;;;5028323;28;20816;-48
2022/10/16 07:43:27;;;;;;;5.10;3.70;;;11.70;99.90;;;;;;5028488;28;20443;-50
2022/10/16 07:45:55;;;;;;;3.07;2.70;;;11.50;99.90;;;;;;5028295;28;20534;-49
2022/10/16 07:48:23;;;;;;;3.00;2.17;;;11.20;99.90;;;;;;5028370;28;20453;-50
2022/10/16 07:50:50;;;;;;;3.23;2.80;;;11.20;99.90;;;;;;5028334;28;20566;-49
2022/10/16 07:53:17;;;;;;;3.07;2.40;;;11.50;99.90;;;;;;5027928;28;20444;-48
2022/10/16 07:55:44;;;;;;;2.50;2.07;;;11.40;99.90;;;;;;5028246;28;20444;-48
2022/10/16 07:58:11;;;;;;;4.20;2.60;;;11.20;99.90;;;;;;5028540;28;20446;-49
2022/10/16 08:00:39;;;;;;;5.33;2.63;;;11.30;99.90;;;;;;5029650;28;20562;-48
2022/10/16 08:03:06;;;;;;;4.93;2.67;;;11.30;99.90;;;;;;5028047;28;20439;-48
2022/10/16 08:05:34;;;;;;;3.80;2.37;;;11.30;99.90;;;;;;5028377;28;20535;-49
2022/10/16 08:08:01;;;;;;;2.80;2.03;;;11.40;99.90;;;;;;5028011;28;21074;-50
2022/10/16 08:10:29;;;;;;;4.30;2.80;;;11.30;99.90;;;;;;5028000;28;21001;-48
2022/10/16 08:12:56;;;;;;;3.10;1.70;;;11.50;99.90;;;;;;5027887;28;20486;-49
2022/10/16 08:15:23;;;;;;;4.40;1.80;;;11.70;99.90;;;;;;5028060;28;20534;-51
2022/10/16 08:17:59;;;;;;;2.77;2.03;;;12.00;99.90;;;;;;5028165;28;20530;-48
2022/10/16 08:20:26;;;;;;;4.33;1.80;;;12.20;99.90;;;;;;5027652;28;20542;-48
2022/10/16 08:22:54;;;;;;;3.13;2.10;;;12.40;99.90;;;;;;5027872;28;20455;-45
2022/10/16 08:25:21;;;;;;;2.30;1.67;;;12.60;99.90;;;;;;5027928;28;20512;-48
2022/10/16 08:27:48;;;;;;;3.77;1.63;;;12.70;99.90;;;;;;5027869;28;20451;-48
2022/10/16 08:30:15;;;;;;;2.37;1.73;;;12.70;99.90;;;;;;5027661;28;21258;-48
2022/10/16 08:32:42;;;;;;;3.20;2.17;;;12.70;99.90;;;;;;5028065;28;20535;-48
2022/10/16 08:35:11;;;;;;;4.20;2.33;;;12.70;99.90;;;;;;5027695;28;20531;-48
2022/10/16 08:37:39;;;;;;;4.53;2.40;;;12.90;99.90;;;;;;5027738;28;20973;-48
2022/10/16 08:40:11;;;;;;;4.23;2.90;;;13.00;99.90;;;;;;5027833;28;20470;-48
2022/10/16 08:42:52;;;;;;;6.30;3.47;;;13.00;99.90;;;;;;5031121;28;20441;-48
2022/10/16 08:45:42;;;;;;;2.70;2.00;;;13.10;99.90;;;;;;5031214;28;20634;-48
2022/10/16 08:48:21;;;;;;;2.20;1.83;;;13.20;99.90;;;;;;5031584;28;20497;-49
2022/10/16 08:50:51;;;;;;;3.37;2.70;;;13.30;99.90;;;;;;5030432;28;20849;-50
2022/10/16 08:53:23;;;;;;;5.37;1.77;;;13.30;99.90;;;;;;5030576;28;20540;-48
2022/10/16 08:55:52;;;;;;;2.00;1.50;;;13.30;99.90;;;;;;5031104;28;20451;-49
2022/10/16 08:58:20;;;;;;;2.80;2.50;;;13.40;99.90;;;;;;5031024;28;20442;-48
2022/10/16 09:00:50;;;;;;;2.77;1.93;;;13.50;99.90;;;;;;5030514;28;20469;-48
2022/10/16 09:03:29;;;;;;;2.50;1.80;;;13.60;99.90;;;;;;5030943;28;20532;-48
2022/10/16 09:06:11;;;;;;;5.07;2.30;;;13.60;99.90;;;;;;5030796;28;21004;-48
2022/10/16 09:08:49;;;;;;;2.80;2.50;;;13.70;99.90;;;;;;5031051;28;20537;-48
2022/10/16 09:11:27;;;;;;;3.10;1.83;;;13.80;99.90;;;;;;5030673;28;20492;-48
2022/10/16 09:14:02;;;;;;;1.97;1.77;;;13.80;99.90;;;;;;5030327;28;20536;-48
2022/10/16 09:16:35;;;;;;;3.03;2.47;;;14.00;99.90;;;;;;5030809;28;20533;-47
2022/10/16 09:19:09;;;;;;;3.03;2.00;;;14.10;99.90;;;;;;5030466;28;20814;-49
2022/10/16 09:21:41;;;;;;;2.30;1.90;;;14.10;99.90;;;;;;5030312;28;20471;-50
2022/10/16 09:24:13;;;;;;;2.30;2.00;;;14.10;99.90;;;;;;5030364;28;20549;-49
2022/10/16 09:26:39;;;;;;;2.53;2.07;;;14.10;99.90;;;;;;5030577;28;20460;-51
2022/10/16 09:29:06;;;;;;;2.40;2.20;;;14.20;99.90;;;;;;5030721;28;20540;-49
2022/10/16 09:31:37;;;;;;;3.00;2.20;;;14.30;99.90;;;;;;5030487;28;20492;-49
2022/10/16 09:34:06;;;;;;;2.37;1.70;;;14.20;99.90;;;;;;5029827;28;20442;-49
2022/10/16 09:36:41;;;;;;;2.10;1.90;;;14.30;99.90;;;;;;5030612;28;20457;-49
2022/10/16 09:39:09;;;;;;;2.87;2.20;;;14.50;99.90;;;;;;5030487;28;20546;-48
2022/10/16 09:41:39;;;;;;;2.03;1.60;;;14.60;99.90;;;;;;5030633;28;20881;-49
2022/10/16 09:44:17;;;;;;;4.20;2.17;;;14.70;99.90;;;;;;5030069;28;20533;-49
2022/10/16 09:46:43;;;;;;;3.20;2.40;;;14.80;99.90;;;;;;5030114;28;20439;-48
2022/10/16 09:49:23;;;;;;;2.57;1.73;;;14.70;99.90;;;;;;5030121;28;20566;-48
2022/10/16 09:51:53;;;;;;;2.53;1.93;;;14.90;99.90;;;;;;5029562;28;20486;-48
2022/10/16 09:54:22;;;;;;;2.67;1.93;;;14.90;99.90;;;;;;5030056;28;20971;-48
2022/10/16 09:56:51;;;;;;;3.80;1.93;;;15.00;99.90;;;;;;5030263;28;20541;-51
2022/10/16 09:59:20;;;;;;;3.57;2.23;;;15.10;99.90;;;;;;5029863;28;20440;-48
2022/10/16 10:01:50;;;;;;;2.33;1.70;;;15.20;99.90;;;;;;5030002;28;20546;-48
2022/10/16 10:04:17;;;;;;;2.47;1.80;;;15.20;99.90;;;;;;5029833;28;20503;-48
2022/10/16 10:06:47;;;;;;;2.53;2.00;;;15.30;99.90;;;;;;5029896;28;20529;-49
2022/10/16 10:09:22;;;;;;;2.90;2.00;;;15.50;99.90;;;;;;5029818;28;20985;-48
2022/10/16 10:11:51;;;;;;;2.50;2.00;;;15.60;99.90;;;;;;5029625;28;20479;-50
2022/10/16 10:14:28;;;;;;;6.53;4.63;;;15.70;99.90;;;;;;5029670;28;20456;-48
2022/10/16 10:17:11;;;;;;;10.83;7.27;;;15.80;99.90;;;;;;5029781;28;20447;-49
2022/10/16 10:19:41;;;;;;;5.73;4.40;;;15.90;99.90;;;;;;5029818;28;20533;-49
2022/10/16 10:22:23;;;;;;;3.77;2.10;;;15.90;99.90;;;;;;5029419;28;20522;-48
2022/10/16 10:25:00;;;;;;;2.90;1.90;;;15.80;99.90;;;;;;5029388;28;20530;-48
2022/10/16 10:27:39;;;;;;;2.67;1.70;;;15.90;99.90;;;;;;5030046;28;20443;-48
2022/10/16 10:30:16;;;;;;;2.60;1.77;;;16.00;99.90;;;;;;5029594;28;20554;-48
2022/10/16 10:32:50;;;;;;;2.93;1.67;;;16.10;99.90;;;;;;5029232;28;20983;-49
2022/10/16 10:35:23;;;;;;;2.13;1.77;;;16.10;99.90;;;;;;5029558;28;20528;-48
2022/10/16 10:38:09;;;;;;;2.60;2.00;;;16.10;99.90;;;;;;5029340;28;20446;-48
2022/10/16 10:40:46;;;;;;;2.53;1.50;;;16.20;99.90;;;;;;5029411;28;20459;-49
2022/10/16 10:43:26;;;;;;;2.20;1.67;;;16.20;99.90;;;;;;5029108;28;20812;-48
2022/10/16 10:45:59;;;;;;;3.40;1.53;;;16.30;99.90;;;;;;5029316;28;20878;-49
2022/10/16 10:48:48;;;;;;;1.93;1.70;;;16.40;99.90;;;;;;5029401;28;20482;-48
2022/10/16 10:51:22;;;;;;;4.20;2.20;;;16.40;99.90;;;;;;5029210;28;20565;-48
2022/10/16 10:54:05;;;;;;;2.30;1.83;;;16.40;99.90;;;;;;5029172;28;20530;-49
2022/10/16 10:56:45;;;;;;;1.93;1.57;;;16.50;99.90;;;;;;5029177;28;20538;-48
2022/10/16 10:59:38;;;;;;;3.67;1.97;;;16.50;99.90;;;;;;5028973;28;20537;-49
2022/10/16 11:02:14;;;;;;;2.03;1.70;;;16.60;99.90;;;;;;5025452;28;20453;-48
2022/10/16 11:04:56;;;;;;;2.33;1.97;;;16.60;99.90;;;;;;5028416;28;20937;-48
2022/10/16 11:07:28;;;;;;;2.77;2.07;;;16.70;99.90;;;;;;5029060;28;20449;-49
2022/10/16 11:09:58;;;;;;;2.40;1.93;;;16.80;99.90;;;;;;5028936;28;20550;-50
2022/10/16 11:12:30;;;;;;;2.00;1.80;;;16.70;99.90;;;;;;5028991;28;20569;-49
2022/10/16 11:15:02;;;;;;;2.67;2.10;;;16.80;99.90;;;;;;5028714;28;20789;-48
2022/10/16 11:17:33;;;;;;;2.40;2.20;;;16.80;99.90;;;;;;5029056;28;20538;-48
2022/10/16 11:20:04;;;;;;;2.40;2.00;;;16.90;99.90;;;;;;5028516;28;20572;-48
2022/10/16 11:22:35;;;;;;;3.30;2.10;;;17.10;99.90;;;;;;5029019;28;20510;-51
2022/10/16 11:25:08;;;;;;;10.53;2.50;;;17.00;99.90;;;;;;5028738;28;20878;-48
2022/10/16 11:27:40;;;;;;;8.83;2.80;;;17.10;99.90;;;;;;5028691;28;20478;-48
2022/10/16 11:30:16;;;;;;;4.67;2.17;;;17.00;99.90;;;;;;5028533;28;21044;-51
2022/10/16 11:32:53;;;;;;;2.50;1.70;;;16.90;99.90;;;;;;5028751;28;20485;-50
2022/10/16 11:35:25;;;;;;;2.37;1.80;;;17.30;99.90;;;;;;5028553;28;20537;-48
2022/10/16 11:37:54;;;;;;;2.80;2.10;;;17.40;99.90;;;;;;5028592;28;20453;-51
2022/10/16 11:40:28;;;;;;;2.10;1.90;;;17.50;99.90;;;;;;5028597;28;20858;-48
2022/10/16 11:43:05;;;;;;;3.90;2.20;;;17.60;99.90;;;;;;5028240;28;20958;-49
2022/10/16 11:45:37;;;;;;;2.67;2.17;;;17.80;99.90;;;;;;5028667;28;20487;-48
2022/10/16 11:48:12;;;;;;;3.10;2.00;;;17.70;99.90;;;;;;5028531;28;20451;-48
2022/10/16 11:50:46;;;;;;;2.53;1.87;;;17.60;99.90;;;;;;5028771;28;20477;-49
2022/10/16 11:53:19;;;;;;;2.17;1.73;;;17.80;99.90;;;;;;5027826;28;20857;-50
2022/10/16 11:55:46;;;;;;;2.27;1.93;;;17.80;99.90;;;;;;5028732;28;20455;-49
2022/10/16 11:58:26;;;;;;;3.27;2.10;;;17.90;99.90;;;;;;5028270;28;20941;-48
2022/10/16 12:01:00;;;;;;;2.37;1.77;;;18.00;99.90;;;;;;5028213;28;20474;-48
2022/10/16 12:03:32;;;;;;;4.10;2.10;;;17.80;99.90;;;;;;5027905;28;21008;-50
2022/10/16 12:06:28;;;;;;;2.23;2.03;;;17.90;99.90;;;;;;5027987;28;20475;-48
2022/10/16 12:08:56;;;;;;;2.00;1.67;;;17.80;99.90;;;;;;5028291;28;20469;-50
2022/10/16 12:11:36;;;;;;;2.97;2.20;;;17.70;99.90;;;;;;5028061;28;20512;-48
2022/10/16 12:14:37;;;;;;;2.57;1.93;;;17.80;99.90;;;;;;5027766;28;20448;-48
2022/10/16 12:17:23;;;;;;;3.37;1.70;;;17.80;99.90;;;;;;5031272;28;20940;-49
2022/10/16 12:19:59;;;;;;;3.73;1.93;;;17.80;99.90;;;;;;5031647;28;20458;-49
2022/10/16 12:22:29;;;;;;;2.87;2.13;;;17.90;99.90;;;;;;5031619;28;20893;-49
2022/10/16 12:24:57;;;;;;;2.50;1.93;;;18.00;99.90;;;;;;5031361;28;20442;-49
2022/10/16 12:27:28;;;;;;;3.00;2.20;;;18.10;99.90;;;;;;5031345;28;20447;-49
2022/10/16 12:29:58;;;;;;;3.50;2.00;;;18.00;99.90;;;;;;5031427;28;20866;-49
2022/10/16 12:32:31;;;;;;;3.07;1.90;;;18.10;99.90;;;;;;5031513;28;20996;-50
2022/10/16 12:34:59;;;;;;;2.70;2.30;;;18.00;99.90;;;;;;5031285;28;20512;-48
2022/10/16 12:37:28;;;;;;;3.20;2.40;;;18.10;99.90;;;;;;5031273;28;20452;-49
2022/10/16 12:39:57;;;;;;;2.60;2.10;;;18.10;99.90;;;;;;5031374;28;20974;-49
2022/10/16 12:42:34;;;;;;;8.07;2.70;;;18.20;99.90;;;;;;5031287;28;20450;-49
2022/10/16 12:45:14;;;;;;;5.77;2.67;;;18.20;99.90;;;;;;5030386;28;20936;-49
2022/10/16 12:47:50;;;;;;;2.87;1.90;;;18.20;99.90;;;;;;5031089;28;20455;-49
2022/10/16 12:50:27;;;;;;;3.03;2.10;;;18.30;99.90;;;;;;5030898;28;21040;-49
2022/10/16 12:52:54;;;;;;;2.53;1.93;;;18.30;99.90;;;;;;5030803;28;20508;-49
2022/10/16 12:55:23;;;;;;;8.90;3.40;;;18.40;99.90;;;;;;5030783;28;20459;-50
2022/10/16 12:58:07;;;;;;;3.70;2.47;;;18.40;99.90;;;;;;5031123;28;20443;-49
2022/10/16 13:00:44;;;;;;;5.10;4.10;;;18.40;99.90;;;;;;5030630;28;20470;-49